sensor_id;sensor_type;location;lat;lon;timestamp;temperature;humidity
3954;DHT22;1991;48.682;9.030;2022-08-20T00:00:45;19.40;99.90
3954;DHT22;1991;48.682;9.030;2022-08-20T00:03:17;19.30;99.90
3954;DHT22;1991;48.682;9.030;2022-08-20T00:05:50;19.30;99.90
3954;DHT22;1991;48.682;9.030;2022-08-20T00:08:20;19.20;99.90
3954;DHT22;1991;48.682;9.030;2022-08-20T00:10:48;19.20;99.90
3954;DHT22;1991;48.682;9.030;2022-08-20T00:13:17;19.20;99.90
3954;DHT22;1991;48.682;9.030;2022-08-20T00:15:43;19.20;99.90
3954;DHT22;1991;48.682;9.030;2022-08-20T00:18:09;19.10;99.90
3954;DHT22;1991;48.682;9.030;2022-08-20T00:20:39;19.10;99.90
3954;DHT22;1991;48.682;9.030;2022-08-20T00:23:05;19.10;99.90
3954;DHT22;1991;48.682;9.030;2022-08-20T00:25:31;19.10;99.90
3954;DHT22;1991;48.682;9.030;2022-08-20T00:27:58;19.10;99.90
3954;DHT22;1991;48.682;9.030;2022-08-20T00:30:25;19.10;99.90
3954;DHT22;1991;48.682;9.030;2022-08-20T00:33:03;19.10;99.90
3954;DHT22;1991;48.682;9.030;2022-08-20T00:35:33;19.10;99.90
3954;DHT22;1991;48.682;9.030;2022-08-20T00:37:58;19.10;99.90
3954;DHT22;1991;48.682;9.030;2022-08-20T00:40:28;19.10;99.90
3954;DHT22;1991;48.682;9.030;2022-08-20T00:42:57;19.10;99.90
3954;DHT22;1991;48.682;9.030;2022-08-20T00:45:25;19.10;99.90
3954;DHT22;1991;48.682;9.030;2022-08-20T00:47:52;19.10;99.90
3954;DHT22;1991;48.682;9.030;2022-08-20T00:50:23;19.10;99.90
3954;DHT22;1991;48.682;9.030;2022-08-20T00:52:50;19.10;99.90
3954;DHT22;1991;48.682;9.030;2022-08-20T00:55:20;19.10;99.90
3954;DHT22;1991;48.682;9.030;2022-08-20T00:57:50;19.20;99.90
3954;DHT22;1991;48.682;9.030;2022-08-20T01:00:27;19.10;99.90
3954;DHT22;1991;48.682;9.030;2022-08-20T01:02:53;19.20;99.90
3954;DHT22;1991;48.682;9.030;2022-08-20T01:05:19;19.20;99.90
3954;DHT22;1991;48.682;9.030;2022-08-20T01:07:48;19.20;99.90
3954;DHT22;1991;48.682;9.030;2022-08-20T01:10:18;19.20;99.90
3954;DHT22;1991;48.682;9.030;2022-08-20T01:12:46;19.20;99.90
3954;DHT22;1991;48.682;9.030;2022-08-20T01:15:15;19.20;99.90
3954;DHT22;1991;48.682;9.030;2022-08-20T01:17:48;19.10;99.90
3954;DHT22;1991;48.682;9.030;2022-08-20T01:20:35;19.10;99.90
3954;DHT22;1991;48.682;9.030;2022-08-20T01:31:02;19.20;99.90
3954;DHT22;1991;48.682;9.030;2022-08-20T01:33:28;19.20;99.90
3954;DHT22;1991;48.682;9.030;2022-08-20T01:35:54;19.30;99.90
3954;DHT22;1991;48.682;9.030;2022-08-20T01:38:20;19.20;99.90
3954;DHT22;1991;48.682;9.030;2022-08-20T01:43:45;19.30;99.90
3954;DHT22;1991;48.682;9.030;2022-08-20T01:46:12;19.30;99.90
3954;DHT22;1991;48.682;9.030;2022-08-20T01:48:38;19.30;99.90
3954;DHT22;1991;48.682;9.030;2022-08-20T01:51:17;19.40;99.90
3954;DHT22;1991;48.682;9.030;2022-08-20T01:53:46;19.40;99.90
3954;DHT22;1991;48.682;9.030;2022-08-20T01:56:15;19.30;99.90
3954;DHT22;1991;48.682;9.030;2022-08-20T01:58:45;19.40;99.90
3954;DHT22;1991;48.682;9.030;2022-08-20T02:01:32;19.40;99.90
3954;DHT22;1991;48.682;9.030;2022-08-20T02:03:59;19.40;99.90
3954;DHT22;1991;48.682;9.030;2022-08-20T02:06:26;19.40;99.90
3954;DHT22;1991;48.682;9.030;2022-08-20T02:08:56;19.40;99.90
3954;DHT22;1991;48.682;9.030;2022-08-20T02:11:24;19.40;99.90
3954;DHT22;1991;48.682;9.030;2022-08-20T02:13:51;19.40;99.90
3954;DHT22;1991;48.682;9.030;2022-08-20T02:16:28;19.40;99.90
3954;DHT22;1991;48.682;9.030;2022-08-20T02:19:00;19.40;99.90
3954;DHT22;1991;48.682;9.030;2022-08-20T02:21:30;19.40;99.90
3954;DHT22;1991;48.682;9.030;2022-08-20T02:23:57;19.40;99.90
3954;DHT22;1991;48.682;9.030;2022-08-20T02:26:24;19.40;99.90
3954;DHT22;1991;48.682;9.030;2022-08-20T02:28:52;19.40;99.90
3954;DHT22;1991;48.682;9.030;2022-08-20T02:31:19;19.40;99.90
3954;DHT22;1991;48.682;9.030;2022-08-20T02:33:46;19.30;99.90
3954;DHT22;1991;48.682;9.030;2022-08-20T02:36:13;19.30;99.90
3954;DHT22;1991;48.682;9.030;2022-08-20T02:38:40;19.30;99.90
3954;DHT22;1991;48.682;9.030;2022-08-20T02:41:06;19.30;99.90
3954;DHT22;1991;48.682;9.030;2022-08-20T02:43:33;19.30;99.90
3954;DHT22;1991;48.682;9.030;2022-08-20T02:45:59;19.30;99.90
3954;DHT22;1991;48.682;9.030;2022-08-20T02:48:25;19.40;99.90
3954;DHT22;1991;48.682;9.030;2022-08-20T02:51:00;19.40;99.90
3954;DHT22;1991;48.682;9.030;2022-08-20T02:53:28;19.30;99.90
3954;DHT22;1991;48.682;9.030;2022-08-20T02:55:55;19.30;99.90
3954;DHT22;1991;48.682;9.030;2022-08-20T02:58:21;19.40;99.90
3954;DHT22;1991;48.682;9.030;2022-08-20T03:00:48;19.40;99.90
3954;DHT22;1991;48.682;9.030;2022-08-20T03:03:15;19.40;99.90
3954;DHT22;1991;48.682;9.030;2022-08-20T03:05:47;19.30;99.90
3954;DHT22;1991;48.682;9.030;2022-08-20T03:08:13;19.30;99.90
3954;DHT22;1991;48.682;9.030;2022-08-20T03:10:42;19.30;99.90
3954;DHT22;1991;48.682;9.030;2022-08-20T03:13:08;19.40;99.90
3954;DHT22;1991;48.682;9.030;2022-08-20T03:15:42;19.30;99.90
3954;DHT22;1991;48.682;9.030;2022-08-20T03:18:09;19.20;99.90
3954;DHT22;1991;48.682;9.030;2022-08-20T03:20:35;19.20;99.90
3954;DHT22;1991;48.682;9.030;2022-08-20T03:23:01;19.10;99.90
3954;DHT22;1991;48.682;9.030;2022-08-20T03:25:26;19.10;99.90
3954;DHT22;1991;48.682;9.030;2022-08-20T03:27:54;19.00;99.90
3954;DHT22;1991;48.682;9.030;2022-08-20T03:30:19;19.00;99.90
3954;DHT22;1991;48.682;9.030;2022-08-20T03:32:45;19.00;99.90
3954;DHT22;1991;48.682;9.030;2022-08-20T03:35:13;19.00;99.90
3954;DHT22;1991;48.682;9.030;2022-08-20T03:37:40;19.00;99.90
3954;DHT22;1991;48.682;9.030;2022-08-20T03:40:11;19.00;99.90
3954;DHT22;1991;48.682;9.030;2022-08-20T03:42:37;18.90;99.90
3954;DHT22;1991;48.682;9.030;2022-08-20T03:45:05;18.90;99.90
3954;DHT22;1991;48.682;9.030;2022-08-20T03:47:31;18.90;99.90
3954;DHT22;1991;48.682;9.030;2022-08-20T03:50:01;19.00;99.90
3954;DHT22;1991;48.682;9.030;2022-08-20T03:52:27;19.00;99.90
3954;DHT22;1991;48.682;9.030;2022-08-20T03:54:54;18.90;99.90
3954;DHT22;1991;48.682;9.030;2022-08-20T03:57:20;19.00;99.90
3954;DHT22;1991;48.682;9.030;2022-08-20T03:59:46;19.00;99.90
3954;DHT22;1991;48.682;9.030;2022-08-20T04:02:11;19.10;99.90
3954;DHT22;1991;48.682;9.030;2022-08-20T04:04:39;19.10;99.90
3954;DHT22;1991;48.682;9.030;2022-08-20T04:07:15;19.10;99.90
3954;DHT22;1991;48.682;9.030;2022-08-20T04:09:41;19.10;99.90
3954;DHT22;1991;48.682;9.030;2022-08-20T04:12:10;19.10;99.90
3954;DHT22;1991;48.682;9.030;2022-08-20T04:14:37;19.10;99.90
3954;DHT22;1991;48.682;9.030;2022-08-20T04:17:05;19.10;99.90
3954;DHT22;1991;48.682;9.030;2022-08-20T04:19:31;19.10;99.90
3954;DHT22;1991;48.682;9.030;2022-08-20T04:21:56;19.10;99.90
3954;DHT22;1991;48.682;9.030;2022-08-20T04:24:22;19.10;99.90
3954;DHT22;1991;48.682;9.030;2022-08-20T04:26:47;19.10;99.90
3954;DHT22;1991;48.682;9.030;2022-08-20T04:29:13;19.10;99.90
3954;DHT22;1991;48.682;9.030;2022-08-20T04:31:39;19.10;99.90
3954;DHT22;1991;48.682;9.030;2022-08-20T04:34:05;19.10;99.90
3954;DHT22;1991;48.682;9.030;2022-08-20T04:36:33;19.10;99.90
3954;DHT22;1991;48.682;9.030;2022-08-20T04:39:02;19.10;99.90
3954;DHT22;1991;48.682;9.030;2022-08-20T04:41:28;19.10;99.90
3954;DHT22;1991;48.682;9.030;2022-08-20T04:43:55;19.10;99.90
3954;DHT22;1991;48.682;9.030;2022-08-20T04:46:23;19.10;99.90
3954;DHT22;1991;48.682;9.030;2022-08-20T04:48:49;19.10;99.90
3954;DHT22;1991;48.682;9.030;2022-08-20T04:51:15;19.10;99.90
3954;DHT22;1991;48.682;9.030;2022-08-20T04:53:41;19.10;99.90
3954;DHT22;1991;48.682;9.030;2022-08-20T04:56:08;19.10;99.90
3954;DHT22;1991;48.682;9.030;2022-08-20T04:58:36;19.20;99.90
3954;DHT22;1991;48.682;9.030;2022-08-20T05:01:09;19.20;99.90
3954;DHT22;1991;48.682;9.030;2022-08-20T05:03:36;19.20;99.90
3954;DHT22;1991;48.682;9.030;2022-08-20T05:06:03;19.20;99.90
3954;DHT22;1991;48.682;9.030;2022-08-20T05:08:30;19.20;99.90
3954;DHT22;1991;48.682;9.030;2022-08-20T05:10:57;19.20;99.90
3954;DHT22;1991;48.682;9.030;2022-08-20T05:13:24;19.20;99.90
3954;DHT22;1991;48.682;9.030;2022-08-20T05:15:50;19.20;99.90
3954;DHT22;1991;48.682;9.030;2022-08-20T05:18:19;19.20;99.90
3954;DHT22;1991;48.682;9.030;2022-08-20T05:20:46;19.30;99.90
3954;DHT22;1991;48.682;9.030;2022-08-20T05:23:14;19.30;99.90
3954;DHT22;1991;48.682;9.030;2022-08-20T05:25:42;19.30;99.90
3954;DHT22;1991;48.682;9.030;2022-08-20T05:28:16;19.20;99.90
3954;DHT22;1991;48.682;9.030;2022-08-20T05:30:44;19.20;99.90
3954;DHT22;1991;48.682;9.030;2022-08-20T05:33:11;19.20;99.90
3954;DHT22;1991;48.682;9.030;2022-08-20T05:35:38;19.30;99.90
3954;DHT22;1991;48.682;9.030;2022-08-20T05:38:06;19.30;99.90
3954;DHT22;1991;48.682;9.030;2022-08-20T05:40:32;19.30;99.90
3954;DHT22;1991;48.682;9.030;2022-08-20T05:42:58;19.40;99.90
3954;DHT22;1991;48.682;9.030;2022-08-20T05:45:24;19.30;99.90
3954;DHT22;1991;48.682;9.030;2022-08-20T05:47:49;19.40;99.90
3954;DHT22;1991;48.682;9.030;2022-08-20T05:50:17;19.40;99.90
3954;DHT22;1991;48.682;9.030;2022-08-20T05:52:42;19.40;99.90
3954;DHT22;1991;48.682;9.030;2022-08-20T05:55:10;19.60;99.90
3954;DHT22;1991;48.682;9.030;2022-08-20T05:57:38;19.70;99.90
3954;DHT22;1991;48.682;9.030;2022-08-20T06:00:07;19.80;99.90
3954;DHT22;1991;48.682;9.030;2022-08-20T06:02:33;19.90;99.90
3954;DHT22;1991;48.682;9.030;2022-08-20T06:05:17;20.00;99.90
3954;DHT22;1991;48.682;9.030;2022-08-20T06:07:44;20.10;99.90
3954;DHT22;1991;48.682;9.030;2022-08-20T06:10:10;20.10;99.90
3954;DHT22;1991;48.682;9.030;2022-08-20T06:12:36;20.20;99.90
3954;DHT22;1991;48.682;9.030;2022-08-20T06:15:04;20.40;99.90
3954;DHT22;1991;48.682;9.030;2022-08-20T06:17:30;20.50;99.90
3954;DHT22;1991;48.682;9.030;2022-08-20T06:20:00;20.60;99.90
3954;DHT22;1991;48.682;9.030;2022-08-20T06:22:26;20.70;99.90
3954;DHT22;1991;48.682;9.030;2022-08-20T06:24:52;20.60;99.90
3954;DHT22;1991;48.682;9.030;2022-08-20T06:27:18;20.50;99.90
3954;DHT22;1991;48.682;9.030;2022-08-20T06:29:44;20.40;99.90
3954;DHT22;1991;48.682;9.030;2022-08-20T06:32:10;20.40;99.90
3954;DHT22;1991;48.682;9.030;2022-08-20T06:34:35;20.30;99.90
3954;DHT22;1991;48.682;9.030;2022-08-20T06:37:01;20.30;99.90
3954;DHT22;1991;48.682;9.030;2022-08-20T06:39:27;20.30;99.90
3954;DHT22;1991;48.682;9.030;2022-08-20T06:41:55;20.30;99.90
3954;DHT22;1991;48.682;9.030;2022-08-20T06:44:23;20.40;99.90
3954;DHT22;1991;48.682;9.030;2022-08-20T06:46:49;20.40;99.90
3954;DHT22;1991;48.682;9.030;2022-08-20T06:49:14;20.50;99.90
3954;DHT22;1991;48.682;9.030;2022-08-20T06:51:40;20.50;99.90
3954;DHT22;1991;48.682;9.030;2022-08-20T06:54:05;20.60;99.90
3954;DHT22;1991;48.682;9.030;2022-08-20T06:56:32;20.60;99.90
3954;DHT22;1991;48.682;9.030;2022-08-20T06:58:58;20.60;99.90
3954;DHT22;1991;48.682;9.030;2022-08-20T07:01:23;20.70;99.90
3954;DHT22;1991;48.682;9.030;2022-08-20T07:03:49;20.80;99.90
3954;DHT22;1991;48.682;9.030;2022-08-20T07:06:16;20.90;99.90
3954;DHT22;1991;48.682;9.030;2022-08-20T07:08:42;20.90;99.90
3954;DHT22;1991;48.682;9.030;2022-08-20T07:11:09;21.00;99.90
3954;DHT22;1991;48.682;9.030;2022-08-20T07:13:34;21.00;99.90
3954;DHT22;1991;48.682;9.030;2022-08-20T07:16:03;21.00;99.90
3954;DHT22;1991;48.682;9.030;2022-08-20T07:18:29;21.00;99.90
3954;DHT22;1991;48.682;9.030;2022-08-20T07:20:55;21.00;99.90
3954;DHT22;1991;48.682;9.030;2022-08-20T07:23:22;21.10;99.90
3954;DHT22;1991;48.682;9.030;2022-08-20T07:25:48;21.10;99.90
3954;DHT22;1991;48.682;9.030;2022-08-20T07:28:24;21.10;99.90
3954;DHT22;1991;48.682;9.030;2022-08-20T07:30:51;21.00;99.90
3954;DHT22;1991;48.682;9.030;2022-08-20T07:33:35;21.00;99.90
3954;DHT22;1991;48.682;9.030;2022-08-20T07:36:05;21.10;99.90
3954;DHT22;1991;48.682;9.030;2022-08-20T07:38:32;21.20;99.90
3954;DHT22;1991;48.682;9.030;2022-08-20T07:41:00;21.30;99.90
3954;DHT22;1991;48.682;9.030;2022-08-20T07:43:28;21.40;99.90
3954;DHT22;1991;48.682;9.030;2022-08-20T07:45:55;21.50;99.90
3954;DHT22;1991;48.682;9.030;2022-08-20T07:48:23;21.50;99.90
3954;DHT22;1991;48.682;9.030;2022-08-20T07:50:51;21.50;99.90
3954;DHT22;1991;48.682;9.030;2022-08-20T07:53:17;21.60;99.90
3954;DHT22;1991;48.682;9.030;2022-08-20T07:55:43;21.60;99.90
3954;DHT22;1991;48.682;9.030;2022-08-20T07:58:13;21.70;99.90
3954;DHT22;1991;48.682;9.030;2022-08-20T08:00:40;21.80;99.90
3954;DHT22;1991;48.682;9.030;2022-08-20T08:03:06;21.90;99.90
3954;DHT22;1991;48.682;9.030;2022-08-20T08:05:34;21.90;99.90
3954;DHT22;1991;48.682;9.030;2022-08-20T08:08:00;22.00;99.90
3954;DHT22;1991;48.682;9.030;2022-08-20T08:10:27;22.10;99.90
3954;DHT22;1991;48.682;9.030;2022-08-20T08:12:57;22.10;99.90
3954;DHT22;1991;48.682;9.030;2022-08-20T08:15:26;22.20;99.90
3954;DHT22;1991;48.682;9.030;2022-08-20T08:17:54;22.30;99.90
3954;DHT22;1991;48.682;9.030;2022-08-20T08:20:21;22.40;99.90
3954;DHT22;1991;48.682;9.030;2022-08-20T08:22:48;22.50;99.90
3954;DHT22;1991;48.682;9.030;2022-08-20T08:25:15;22.60;99.90
3954;DHT22;1991;48.682;9.030;2022-08-20T08:27:41;22.80;99.90
3954;DHT22;1991;48.682;9.030;2022-08-20T08:30:08;22.90;99.90
3954;DHT22;1991;48.682;9.030;2022-08-20T08:32:35;23.00;99.90
3954;DHT22;1991;48.682;9.030;2022-08-20T08:35:04;23.10;99.90
3954;DHT22;1991;48.682;9.030;2022-08-20T08:37:32;23.30;99.90
3954;DHT22;1991;48.682;9.030;2022-08-20T08:39:58;23.40;99.90
3954;DHT22;1991;48.682;9.030;2022-08-20T08:43:05;23.50;99.50
3954;DHT22;1991;48.682;9.030;2022-08-20T08:45:30;23.70;99.00
3954;DHT22;1991;48.682;9.030;2022-08-20T08:47:58;23.80;97.80
3954;DHT22;1991;48.682;9.030;2022-08-20T08:50:27;24.00;97.60
3954;DHT22;1991;48.682;9.030;2022-08-20T08:52:56;24.20;97.30
3954;DHT22;1991;48.682;9.030;2022-08-20T08:55:24;24.40;96.70
3954;DHT22;1991;48.682;9.030;2022-08-20T08:57:54;24.70;95.40
3954;DHT22;1991;48.682;9.030;2022-08-20T09:00:21;25.00;94.60
3954;DHT22;1991;48.682;9.030;2022-08-20T09:05:27;25.40;93.80
3954;DHT22;1991;48.682;9.030;2022-08-20T09:07:56;25.40;92.60
3954;DHT22;1991;48.682;9.030;2022-08-20T09:10:22;25.80;92.50
3954;DHT22;1991;48.682;9.030;2022-08-20T09:12:48;26.00;91.70
3954;DHT22;1991;48.682;9.030;2022-08-20T09:15:13;26.00;90.90
3954;DHT22;1991;48.682;9.030;2022-08-20T09:17:40;26.10;90.40
3954;DHT22;1991;48.682;9.030;2022-08-20T09:20:05;26.20;90.30
3954;DHT22;1991;48.682;9.030;2022-08-20T09:22:32;26.30;90.00
3954;DHT22;1991;48.682;9.030;2022-08-20T09:24:58;26.40;88.20
3954;DHT22;1991;48.682;9.030;2022-08-20T09:27:24;26.10;88.40
3954;DHT22;1991;48.682;9.030;2022-08-20T09:29:50;26.10;86.80
3954;DHT22;1991;48.682;9.030;2022-08-20T09:32:20;26.30;87.90
3954;DHT22;1991;48.682;9.030;2022-08-20T09:34:48;26.20;86.70
3954;DHT22;1991;48.682;9.030;2022-08-20T09:37:16;26.00;87.70
3954;DHT22;1991;48.682;9.030;2022-08-20T09:39:42;25.80;87.60
3954;DHT22;1991;48.682;9.030;2022-08-20T09:42:15;25.60;87.10
3954;DHT22;1991;48.682;9.030;2022-08-20T09:44:41;25.40;88.20
3954;DHT22;1991;48.682;9.030;2022-08-20T09:47:07;25.20;88.90
3954;DHT22;1991;48.682;9.030;2022-08-20T09:49:33;25.20;89.40
3954;DHT22;1991;48.682;9.030;2022-08-20T09:52:02;25.50;87.20
3954;DHT22;1991;48.682;9.030;2022-08-20T09:54:29;25.70;86.70
3954;DHT22;1991;48.682;9.030;2022-08-20T09:57:01;25.90;85.80
3954;DHT22;1991;48.682;9.030;2022-08-20T09:59:28;25.90;84.50
3954;DHT22;1991;48.682;9.030;2022-08-20T10:01:54;26.00;84.00
3954;DHT22;1991;48.682;9.030;2022-08-20T10:04:20;26.00;84.50
3954;DHT22;1991;48.682;9.030;2022-08-20T10:06:46;25.80;85.50
3954;DHT22;1991;48.682;9.030;2022-08-20T10:09:11;25.70;86.00
3954;DHT22;1991;48.682;9.030;2022-08-20T10:11:37;25.50;86.80
3954;DHT22;1991;48.682;9.030;2022-08-20T10:14:03;25.00;87.20
3954;DHT22;1991;48.682;9.030;2022-08-20T10:16:29;24.80;88.80
3954;DHT22;1991;48.682;9.030;2022-08-20T10:18:55;24.40;90.00
3954;DHT22;1991;48.682;9.030;2022-08-20T10:21:21;24.10;90.70
3954;DHT22;1991;48.682;9.030;2022-08-20T10:23:46;23.80;91.20
3954;DHT22;1991;48.682;9.030;2022-08-20T10:26:14;23.70;92.00
3954;DHT22;1991;48.682;9.030;2022-08-20T10:28:41;23.50;93.00
3954;DHT22;1991;48.682;9.030;2022-08-20T10:31:10;23.30;94.00
3954;DHT22;1991;48.682;9.030;2022-08-20T10:33:37;23.30;94.40
3954;DHT22;1991;48.682;9.030;2022-08-20T10:36:08;23.40;94.40
3954;DHT22;1991;48.682;9.030;2022-08-20T10:38:34;23.50;94.20
3954;DHT22;1991;48.682;9.030;2022-08-20T10:41:00;23.50;94.00
3954;DHT22;1991;48.682;9.030;2022-08-20T10:43:25;23.60;94.20
3954;DHT22;1991;48.682;9.030;2022-08-20T10:45:52;24.00;94.00
3954;DHT22;1991;48.682;9.030;2022-08-20T10:48:18;24.70;93.10
3954;DHT22;1991;48.682;9.030;2022-08-20T10:50:44;25.00;92.30
3954;DHT22;1991;48.682;9.030;2022-08-20T10:53:09;25.40;91.00
3954;DHT22;1991;48.682;9.030;2022-08-20T10:55:35;25.40;90.40
3954;DHT22;1991;48.682;9.030;2022-08-20T10:58:04;25.70;89.20
3954;DHT22;1991;48.682;9.030;2022-08-20T11:00:30;26.10;89.00
3954;DHT22;1991;48.682;9.030;2022-08-20T11:02:56;26.50;87.40
3954;DHT22;1991;48.682;9.030;2022-08-20T11:05:22;27.10;86.50
3954;DHT22;1991;48.682;9.030;2022-08-20T11:07:47;27.60;84.80
3954;DHT22;1991;48.682;9.030;2022-08-20T11:10:27;27.60;83.40
3954;DHT22;1991;48.682;9.030;2022-08-20T11:12:58;27.00;83.10
3954;DHT22;1991;48.682;9.030;2022-08-20T11:15:24;26.40;84.20
3954;DHT22;1991;48.682;9.030;2022-08-20T11:17:50;25.80;86.50
3954;DHT22;1991;48.682;9.030;2022-08-20T11:20:18;25.50;88.40
3954;DHT22;1991;48.682;9.030;2022-08-20T11:22:44;25.10;88.60
3954;DHT22;1991;48.682;9.030;2022-08-20T11:25:10;24.70;88.50
3954;DHT22;1991;48.682;9.030;2022-08-20T11:27:41;24.30;90.00
3954;DHT22;1991;48.682;9.030;2022-08-20T11:30:11;24.10;90.60
3954;DHT22;1991;48.682;9.030;2022-08-20T11:32:38;23.90;91.40
3954;DHT22;1991;48.682;9.030;2022-08-20T11:35:04;23.90;91.70
3954;DHT22;1991;48.682;9.030;2022-08-20T11:37:31;23.90;92.30
3954;DHT22;1991;48.682;9.030;2022-08-20T11:39:56;23.70;92.40
3954;DHT22;1991;48.682;9.030;2022-08-20T11:42:22;23.70;92.60
3954;DHT22;1991;48.682;9.030;2022-08-20T11:44:47;23.50;92.30
3954;DHT22;1991;48.682;9.030;2022-08-20T11:47:25;23.40;92.60
3954;DHT22;1991;48.682;9.030;2022-08-20T11:50:06;23.30;93.10
3954;DHT22;1991;48.682;9.030;2022-08-20T11:52:32;23.20;93.60
3954;DHT22;1991;48.682;9.030;2022-08-20T11:54:58;23.20;94.10
3954;DHT22;1991;48.682;9.030;2022-08-20T11:57:26;23.30;93.90
3954;DHT22;1991;48.682;9.030;2022-08-20T11:59:53;23.30;94.00
3954;DHT22;1991;48.682;9.030;2022-08-20T12:02:20;23.30;94.00
3954;DHT22;1991;48.682;9.030;2022-08-20T12:04:46;23.30;93.90
3954;DHT22;1991;48.682;9.030;2022-08-20T12:07:14;23.30;94.30
3954;DHT22;1991;48.682;9.030;2022-08-20T12:09:40;23.40;94.60
3954;DHT22;1991;48.682;9.030;2022-08-20T12:12:06;23.50;94.30
3954;DHT22;1991;48.682;9.030;2022-08-20T12:14:32;23.60;94.50
3954;DHT22;1991;48.682;9.030;2022-08-20T12:17:07;23.60;94.60
3954;DHT22;1991;48.682;9.030;2022-08-20T12:19:39;23.60;94.90
3954;DHT22;1991;48.682;9.030;2022-08-20T12:22:05;23.60;94.60
3954;DHT22;1991;48.682;9.030;2022-08-20T12:24:30;23.50;94.30
3954;DHT22;1991;48.682;9.030;2022-08-20T12:27:10;23.50;93.70
3954;DHT22;1991;48.682;9.030;2022-08-20T12:29:38;23.50;93.80
3954;DHT22;1991;48.682;9.030;2022-08-20T12:32:04;23.50;93.90
3954;DHT22;1991;48.682;9.030;2022-08-20T12:34:35;23.50;94.10
3954;DHT22;1991;48.682;9.030;2022-08-20T12:37:03;23.50;94.20
3954;DHT22;1991;48.682;9.030;2022-08-20T12:39:30;23.60;94.30
3954;DHT22;1991;48.682;9.030;2022-08-20T12:41:58;23.50;94.20
3954;DHT22;1991;48.682;9.030;2022-08-20T12:44:25;23.50;93.70
3954;DHT22;1991;48.682;9.030;2022-08-20T12:46:50;23.50;94.00
3954;DHT22;1991;48.682;9.030;2022-08-20T12:49:16;23.60;93.70
3954;DHT22;1991;48.682;9.030;2022-08-20T12:51:42;23.50;95.60
3954;DHT22;1991;48.682;9.030;2022-08-20T12:54:07;23.40;98.50
3954;DHT22;1991;48.682;9.030;2022-08-20T12:56:33;23.30;99.90
3954;DHT22;1991;48.682;9.030;2022-08-20T12:58:58;23.50;99.90
3954;DHT22;1991;48.682;9.030;2022-08-20T13:01:24;23.70;99.90
3954;DHT22;1991;48.682;9.030;2022-08-20T13:03:49;23.90;98.10
3954;DHT22;1991;48.682;9.030;2022-08-20T13:06:15;24.10;98.20
3954;DHT22;1991;48.682;9.030;2022-08-20T13:08:41;24.40;99.90
3954;DHT22;1991;48.682;9.030;2022-08-20T13:11:06;24.70;99.90
3954;DHT22;1991;48.682;9.030;2022-08-20T13:13:32;24.90;98.90
3954;DHT22;1991;48.682;9.030;2022-08-20T13:15:57;25.20;95.70
3954;DHT22;1991;48.682;9.030;2022-08-20T13:18:23;25.70;95.70
3954;DHT22;1991;48.682;9.030;2022-08-20T13:20:49;25.80;95.30
3954;DHT22;1991;48.682;9.030;2022-08-20T13:23:15;25.80;94.60
3954;DHT22;1991;48.682;9.030;2022-08-20T13:25:41;26.20;94.40
3954;DHT22;1991;48.682;9.030;2022-08-20T13:28:06;26.50;93.60
3954;DHT22;1991;48.682;9.030;2022-08-20T13:30:33;26.30;92.10
3954;DHT22;1991;48.682;9.030;2022-08-20T13:33:01;25.90;92.10
3954;DHT22;1991;48.682;9.030;2022-08-20T13:35:26;26.00;92.10
3954;DHT22;1991;48.682;9.030;2022-08-20T13:37:52;25.70;90.80
3954;DHT22;1991;48.682;9.030;2022-08-20T13:40:18;25.40;91.20
3954;DHT22;1991;48.682;9.030;2022-08-20T13:42:44;25.10;89.50
3954;DHT22;1991;48.682;9.030;2022-08-20T13:45:10;25.00;89.80
3954;DHT22;1991;48.682;9.030;2022-08-20T13:47:37;24.90;91.00
3954;DHT22;1991;48.682;9.030;2022-08-20T13:50:09;25.60;90.50
3954;DHT22;1991;48.682;9.030;2022-08-20T13:52:37;25.90;90.30
3954;DHT22;1991;48.682;9.030;2022-08-20T13:55:05;25.90;90.40
3954;DHT22;1991;48.682;9.030;2022-08-20T13:57:31;26.60;84.60
3954;DHT22;1991;48.682;9.030;2022-08-20T13:59:57;27.00;79.20
3954;DHT22;1991;48.682;9.030;2022-08-20T14:02:23;27.20;79.80
3954;DHT22;1991;48.682;9.030;2022-08-20T14:04:49;27.50;77.70
3954;DHT22;1991;48.682;9.030;2022-08-20T14:07:27;27.20;77.40
3954;DHT22;1991;48.682;9.030;2022-08-20T14:10:02;26.90;80.20
3954;DHT22;1991;48.682;9.030;2022-08-20T14:12:29;26.50;80.60
3954;DHT22;1991;48.682;9.030;2022-08-20T14:14:55;26.20;80.50
3954;DHT22;1991;48.682;9.030;2022-08-20T14:17:32;26.00;80.00
3954;DHT22;1991;48.682;9.030;2022-08-20T14:20:12;25.70;80.30
3954;DHT22;1991;48.682;9.030;2022-08-20T14:22:39;25.60;80.70
3954;DHT22;1991;48.682;9.030;2022-08-20T14:25:06;25.50;79.80
3954;DHT22;1991;48.682;9.030;2022-08-20T14:27:33;25.20;80.10
3954;DHT22;1991;48.682;9.030;2022-08-20T14:30:00;25.10;80.90
3954;DHT22;1991;48.682;9.030;2022-08-20T14:32:26;25.00;82.10
3954;DHT22;1991;48.682;9.030;2022-08-20T14:34:52;24.90;82.30
3954;DHT22;1991;48.682;9.030;2022-08-20T14:37:21;24.90;81.70
3954;DHT22;1991;48.682;9.030;2022-08-20T14:39:50;24.90;81.70
3954;DHT22;1991;48.682;9.030;2022-08-20T14:42:17;24.80;80.20
3954;DHT22;1991;48.682;9.030;2022-08-20T14:44:43;25.30;79.00
3954;DHT22;1991;48.682;9.030;2022-08-20T14:47:20;25.90;76.90
3954;DHT22;1991;48.682;9.030;2022-08-20T14:49:48;26.40;73.60
3954;DHT22;1991;48.682;9.030;2022-08-20T14:52:15;26.90;72.00
3954;DHT22;1991;48.682;9.030;2022-08-20T14:54:42;26.90;70.00
3954;DHT22;1991;48.682;9.030;2022-08-20T14:57:09;26.70;67.10
3954;DHT22;1991;48.682;9.030;2022-08-20T14:59:35;27.00;66.70
3954;DHT22;1991;48.682;9.030;2022-08-20T15:02:04;26.90;64.20
3954;DHT22;1991;48.682;9.030;2022-08-20T15:04:31;27.00;64.80
3954;DHT22;1991;48.682;9.030;2022-08-20T15:06:56;27.00;66.20
3954;DHT22;1991;48.682;9.030;2022-08-20T15:09:22;26.60;64.00
3954;DHT22;1991;48.682;9.030;2022-08-20T15:11:48;26.10;65.40
3954;DHT22;1991;48.682;9.030;2022-08-20T15:14:15;26.20;66.50
3954;DHT22;1991;48.682;9.030;2022-08-20T15:16:40;25.90;63.80
3954;DHT22;1991;48.682;9.030;2022-08-20T15:19:06;25.50;65.70
3954;DHT22;1991;48.682;9.030;2022-08-20T15:21:32;25.50;67.70
3954;DHT22;1991;48.682;9.030;2022-08-20T15:23:57;25.50;69.40
3954;DHT22;1991;48.682;9.030;2022-08-20T15:26:23;25.30;69.20
3954;DHT22;1991;48.682;9.030;2022-08-20T15:28:49;25.50;70.00
3954;DHT22;1991;48.682;9.030;2022-08-20T15:31:14;25.80;65.40
3954;DHT22;1991;48.682;9.030;2022-08-20T15:33:40;26.00;67.90
3954;DHT22;1991;48.682;9.030;2022-08-20T15:36:08;26.20;67.10
3954;DHT22;1991;48.682;9.030;2022-08-20T15:38:34;26.20;65.00
3954;DHT22;1991;48.682;9.030;2022-08-20T15:41:00;26.30;63.80
3954;DHT22;1991;48.682;9.030;2022-08-20T15:43:27;26.30;65.20
3954;DHT22;1991;48.682;9.030;2022-08-20T15:45:53;26.50;66.50
3954;DHT22;1991;48.682;9.030;2022-08-20T15:48:20;26.40;63.30
3954;DHT22;1991;48.682;9.030;2022-08-20T15:50:56;26.20;62.70
3954;DHT22;1991;48.682;9.030;2022-08-20T16:07:16;25.50;63.10
3954;DHT22;1991;48.682;9.030;2022-08-20T16:09:59;25.50;65.10
3954;DHT22;1991;48.682;9.030;2022-08-20T16:12:35;25.40;62.20
3954;DHT22;1991;48.682;9.030;2022-08-20T16:15:09;25.40;63.10
3954;DHT22;1991;48.682;9.030;2022-08-20T16:17:46;25.40;62.80
3954;DHT22;1991;48.682;9.030;2022-08-20T16:20:26;25.40;62.60
3954;DHT22;1991;48.682;9.030;2022-08-20T16:22:53;25.30;61.90
3954;DHT22;1991;48.682;9.030;2022-08-20T16:25:18;25.20;62.60
3954;DHT22;1991;48.682;9.030;2022-08-20T16:30:42;25.00;63.30
3954;DHT22;1991;48.682;9.030;2022-08-20T16:33:18;25.00;63.50
3954;DHT22;1991;48.682;9.030;2022-08-20T16:35:53;24.90;60.80